createdAt,value
2022-08-03T00:02:29.267Z,1.95
2022-08-03T00:05:33.453Z,2.50
2022-08-03T00:08:40.113Z,2.10
2022-08-03T00:11:42.906Z,2.15
2022-08-03T00:14:45.530Z,2.00
2022-08-03T00:17:53.287Z,2.20
2022-08-03T00:20:56.546Z,2.20
2022-08-03T00:23:58.970Z,2.08
2022-08-03T00:27:01.379Z,1.90
2022-08-03T00:30:04.013Z,2.00
2022-08-03T00:33:06.607Z,1.88
2022-08-03T00:36:10.665Z,1.92
2022-08-03T00:39:13.067Z,2.15
2022-08-03T00:42:16.011Z,2.10
2022-08-03T00:45:19.908Z,2.17
2022-08-03T00:48:33.370Z,2.00
2022-08-03T00:51:36.335Z,1.70
2022-08-03T00:54:38.912Z,1.98
2022-08-03T00:57:42.999Z,1.83
2022-08-03T01:00:45.526Z,2.07
2022-08-03T01:03:47.949Z,1.70
2022-08-03T01:07:10.693Z,2.00
2022-08-03T01:10:23.352Z,1.83
2022-08-03T01:14:03.537Z,2.00
2022-08-03T01:17:31.995Z,1.93
2022-08-03T01:20:36.968Z,1.60
2022-08-03T01:23:42.225Z,1.75
2022-08-03T01:27:05.530Z,2.10
2022-08-03T01:30:09.195Z,1.90
2022-08-03T01:33:42.418Z,1.83
2022-08-03T01:36:51.361Z,1.50
2022-08-03T01:39:56.501Z,1.80
2022-08-03T01:43:02.143Z,1.98
2022-08-03T01:46:05.503Z,2.00
2022-08-03T01:49:13.309Z,1.80
2022-08-03T01:52:19.646Z,1.83
2022-08-03T01:55:23.816Z,1.70
2022-08-03T01:58:28.620Z,1.67
2022-08-03T02:02:15.494Z,1.98
2022-08-03T02:04:58.718Z,2.07
2022-08-03T02:08:04.810Z,1.85
2022-08-03T02:11:07.412Z,2.00
2022-08-03T02:14:11.287Z,1.60
2022-08-03T02:17:14.698Z,1.70
2022-08-03T02:20:18.355Z,1.80
2022-08-03T02:23:20.986Z,1.58
2022-08-03T02:26:24.562Z,1.70
2022-08-03T02:29:40.332Z,1.75
2022-08-03T02:32:48.902Z,1.80
2022-08-03T02:35:52.809Z,1.80
2022-08-03T02:38:59.300Z,1.85
2022-08-03T02:42:05.588Z,1.95
2022-08-03T02:45:14.677Z,1.75
2022-08-03T02:48:20.499Z,2.00
2022-08-03T02:51:24.044Z,2.10
2022-08-03T02:54:27.843Z,2.05
2022-08-03T02:57:33.651Z,2.30
2022-08-03T03:00:38.027Z,2.28
2022-08-03T03:03:44.845Z,2.10
2022-08-03T03:06:48.925Z,1.93
2022-08-03T03:09:52.036Z,2.00
2022-08-03T03:12:57.176Z,1.80
2022-08-03T03:16:06.221Z,2.00
2022-08-03T03:19:11.526Z,2.00
2022-08-03T03:22:21.889Z,2.10
2022-08-03T03:25:24.694Z,1.98
2022-08-03T03:28:27.418Z,1.80
2022-08-03T03:31:30.216Z,1.92
2022-08-03T03:34:33.708Z,2.10
2022-08-03T03:37:36.102Z,1.97
2022-08-03T03:40:39.286Z,1.92
2022-08-03T03:43:41.836Z,1.92
2022-08-03T03:46:44.531Z,1.63
2022-08-03T03:49:47.183Z,2.22
2022-08-03T03:52:50.834Z,1.90
2022-08-03T03:56:02.472Z,1.80
2022-08-03T03:59:05.466Z,2.20
2022-08-03T04:02:09.227Z,2.10
2022-08-03T04:05:30.569Z,2.08
2022-08-03T04:08:51.722Z,2.20
2022-08-03T04:11:56.971Z,2.10
2022-08-03T04:15:01.282Z,2.10
2022-08-03T04:18:04.577Z,1.98
2022-08-03T04:21:11.027Z,1.60
2022-08-03T04:24:14.292Z,1.93
2022-08-03T04:27:20.875Z,2.30
2022-08-03T04:30:23.565Z,2.28
2022-08-03T04:33:29.608Z,1.95
2022-08-03T04:36:37.293Z,1.85
2022-08-03T04:39:43.362Z,1.87
2022-08-03T04:42:47.042Z,1.98
2022-08-03T04:45:52.368Z,2.20
2022-08-03T04:49:02.493Z,2.20
2022-08-03T04:52:07.330Z,1.95
2022-08-03T04:55:10.016Z,2.00
2022-08-03T04:58:12.761Z,1.98
2022-08-03T05:01:16.564Z,2.10
2022-08-03T05:04:19.671Z,2.08
2022-08-03T05:07:25.124Z,1.90
2022-08-03T05:10:30.160Z,4.60
2022-08-03T05:13:32.620Z,2.55
2022-08-03T05:16:35.063Z,2.22
2022-08-03T05:19:37.662Z,1.95
2022-08-03T05:22:42.790Z,2.08
2022-08-03T05:25:49.568Z,1.73
2022-08-03T05:28:53.148Z,1.80
2022-08-03T05:31:55.980Z,1.70
2022-08-03T05:34:58.338Z,1.92
2022-08-03T05:38:01.647Z,2.10
2022-08-03T05:41:23.292Z,2.23
2022-08-03T05:44:26.950Z,2.08
2022-08-03T05:47:29.282Z,2.03
2022-08-03T05:50:32.471Z,1.73
2022-08-03T05:53:35.243Z,2.00
2022-08-03T05:56:37.741Z,1.90
2022-08-03T05:59:40.151Z,1.70
2022-08-03T06:02:58.252Z,1.48
2022-08-03T06:06:00.839Z,1.90
2022-08-03T06:09:03.494Z,2.08
2022-08-03T06:12:05.940Z,2.10
2022-08-03T06:15:11.285Z,2.28
2022-08-03T06:18:14.044Z,2.20
2022-08-03T06:21:16.602Z,2.97
2022-08-03T06:24:19.017Z,2.20
2022-08-03T06:27:36.715Z,2.70
2022-08-03T06:30:43.392Z,2.40
2022-08-03T06:33:48.476Z,2.40
2022-08-03T06:37:08.115Z,2.53
2022-08-03T06:40:13.971Z,2.65
2022-08-03T06:43:16.460Z,2.30
2022-08-03T06:46:19.103Z,2.35
2022-08-03T06:49:21.619Z,2.60
2022-08-03T06:52:38.429Z,2.60
2022-08-03T06:55:42.493Z,3.20
2022-08-03T06:58:44.979Z,2.90
2022-08-03T07:01:50.354Z,2.80
2022-08-03T07:04:52.806Z,3.25
2022-08-03T07:07:57.419Z,3.00
2022-08-03T07:10:59.794Z,3.22
2022-08-03T07:14:02.202Z,3.33
2022-08-03T07:17:11.508Z,3.53
2022-08-03T07:20:15.329Z,3.03
2022-08-03T07:23:19.079Z,3.30
2022-08-03T07:26:21.886Z,3.50
2022-08-03T07:29:25.354Z,3.57
2022-08-03T07:32:31.103Z,3.20
2022-08-03T07:35:33.609Z,3.33
2022-08-03T07:38:37.113Z,3.30
2022-08-03T07:41:39.467Z,3.45
2022-08-03T07:44:44.201Z,3.20
2022-08-03T07:47:53.296Z,2.90
2022-08-03T07:50:56.157Z,2.72
2022-08-03T07:53:59.192Z,3.00
2022-08-03T07:57:01.562Z,3.05
2022-08-03T08:00:14.292Z,2.90
2022-08-03T08:03:16.883Z,2.92
2022-08-03T08:06:19.432Z,3.10
2022-08-03T08:09:23.528Z,3.00
2022-08-03T08:12:25.887Z,2.85
2022-08-03T08:15:28.337Z,3.20
2022-08-03T08:18:30.909Z,3.28
2022-08-03T08:21:53.489Z,3.42
2022-08-03T08:24:55.653Z,3.65
2022-08-03T08:28:29.706Z,3.28
2022-08-03T08:31:21.257Z,3.50
2022-08-03T08:34:23.643Z,3.05
2022-08-03T08:37:26.077Z,3.17
2022-08-03T08:40:28.692Z,3.00
2022-08-03T08:43:31.130Z,2.40
2022-08-03T08:46:34.212Z,2.80
2022-08-03T08:49:38.952Z,3.00
2022-08-03T08:52:43.569Z,2.30
2022-08-03T08:55:56.878Z,2.70
2022-08-03T08:59:02.943Z,2.40
2022-08-03T09:02:06.242Z,2.37
2022-08-03T09:05:13.329Z,2.53
2022-08-03T09:08:15.867Z,2.10
2022-08-03T09:11:53.198Z,1.65
2022-08-03T09:15:07.273Z,1.30
2022-08-03T09:18:09.565Z,1.60
2022-08-03T09:21:33.981Z,1.80
2022-08-03T09:24:41.619Z,2.05
2022-08-03T09:27:45.853Z,1.80
2022-08-03T09:31:11.224Z,1.73
2022-08-03T09:34:16.471Z,1.83
2022-08-03T09:37:21.213Z,1.90
2022-08-03T09:40:45.261Z,1.88
2022-08-03T09:43:47.732Z,1.98
2022-08-03T09:46:52.257Z,2.33
2022-08-03T09:50:08.579Z,1.93
2022-08-03T09:53:12.507Z,1.60
2022-08-03T09:56:35.783Z,1.80
2022-08-03T09:59:39.172Z,2.00
2022-08-03T10:02:45.225Z,2.00
2022-08-03T10:05:47.652Z,1.90
2022-08-03T10:09:10.886Z,2.05
2022-08-03T10:12:14.094Z,1.98
2022-08-03T10:16:23.718Z,2.03
2022-08-03T10:18:39.190Z,2.10
2022-08-03T10:21:48.041Z,1.70
2022-08-03T10:24:58.458Z,1.90
2022-08-03T10:28:04.511Z,1.90
2022-08-03T10:31:08.250Z,1.70
2022-08-03T10:34:35.204Z,1.50
2022-08-03T10:37:57.156Z,1.47
2022-08-03T10:41:02.178Z,1.42
2022-08-03T10:44:15.817Z,1.55
2022-08-03T10:47:18.682Z,1.80
2022-08-03T10:50:24.320Z,1.60
2022-08-03T10:53:47.732Z,1.53
2022-08-03T10:57:16.870Z,1.60
2022-08-03T11:00:25.211Z,1.75
2022-08-03T11:03:27.632Z,1.95
2022-08-03T11:06:37.160Z,1.60
2022-08-03T11:09:48.826Z,1.60
2022-08-03T11:12:51.429Z,1.70
2022-08-03T11:16:00.522Z,1.75
2022-08-03T11:19:12.144Z,1.65
2022-08-03T11:22:22.131Z,1.45
2022-08-03T11:25:53.970Z,1.57
2022-08-03T11:28:48.396Z,1.60
2022-08-03T11:31:51.778Z,1.50
2022-08-03T11:35:13.275Z,1.30
2022-08-03T11:38:15.930Z,1.25
2022-08-03T11:41:42.728Z,1.20
2022-08-03T11:44:48.703Z,1.30
2022-08-03T11:47:55.197Z,1.27
2022-08-03T11:50:57.775Z,1.50
2022-08-03T11:54:05.505Z,1.40
2022-08-03T11:57:07.908Z,1.53
2022-08-03T12:00:32.703Z,1.17
2022-08-03T12:03:35.604Z,1.15
2022-08-03T12:06:56.328Z,1.17
2022-08-03T12:10:13.110Z,1.23
2022-08-03T12:14:10.468Z,1.20
2022-08-03T12:16:38.314Z,1.35
2022-08-03T12:19:43.005Z,1.60
2022-08-03T12:22:45.485Z,1.30
2022-08-03T12:25:49.583Z,1.48
2022-08-03T12:28:52.179Z,1.30
2022-08-03T12:31:56.100Z,1.27
2022-08-03T12:35:01.364Z,1.60
2022-08-03T12:38:06.735Z,1.50
2022-08-03T12:41:16.105Z,1.40
2022-08-03T12:44:18.600Z,1.60
2022-08-03T12:47:21.249Z,1.60
2022-08-03T12:50:41.715Z,1.40
2022-08-03T12:53:52.617Z,1.50
2022-08-03T12:57:07.032Z,1.52
2022-08-03T13:00:21.248Z,1.37
2022-08-03T13:03:39.044Z,1.40
2022-08-03T13:06:44.644Z,1.75
2022-08-03T13:09:51.119Z,1.50
2022-08-03T13:12:53.494Z,1.60
2022-08-03T13:15:55.891Z,1.50
2022-08-03T13:18:58.286Z,1.60
2022-08-03T13:22:04.362Z,1.70
2022-08-03T13:25:08.586Z,1.70
2022-08-03T13:28:14.138Z,1.90
2022-08-03T13:31:16.912Z,1.80
2022-08-03T13:34:22.905Z,1.70
2022-08-03T13:37:27.091Z,1.85
2022-08-03T13:40:36.739Z,1.50
2022-08-03T13:43:44.238Z,1.80
2022-08-03T13:46:49.344Z,1.80
2022-08-03T13:49:59.389Z,1.80
2022-08-03T13:53:04.454Z,1.80
2022-08-03T13:56:09.889Z,1.90
2022-08-03T13:59:12.267Z,1.98
2022-08-03T14:02:14.856Z,1.53
2022-08-03T14:05:17.440Z,1.55
2022-08-03T14:08:19.838Z,1.98
2022-08-03T14:12:08.467Z,1.85
2022-08-03T14:14:51.205Z,1.75
2022-08-03T14:17:53.568Z,1.70
2022-08-03T14:21:03.447Z,1.77
2022-08-03T14:24:08.257Z,1.70
2022-08-03T14:27:10.708Z,1.65
2022-08-03T14:30:13.481Z,1.90
2022-08-03T14:33:16.046Z,1.80
2022-08-03T14:36:18.655Z,1.70
2022-08-03T14:39:23.088Z,1.88
2022-08-03T14:42:25.725Z,1.60
2022-08-03T14:45:28.236Z,1.73
2022-08-03T14:50:34.601Z,1.73
2022-08-03T14:51:54.006Z,1.77
2022-08-03T14:54:56.786Z,2.10
2022-08-03T14:58:00.167Z,2.10
2022-08-03T15:01:02.649Z,1.67
2022-08-03T15:04:05.449Z,1.57
2022-08-03T15:07:07.908Z,1.77
2022-08-03T15:10:10.291Z,1.80
2022-08-03T15:13:13.305Z,1.75
2022-08-03T15:16:15.698Z,1.83
2022-08-03T15:20:00.881Z,1.90
2022-08-03T15:22:40.812Z,1.85
2022-08-03T15:26:30.331Z,1.70
2022-08-03T15:29:08.164Z,1.80
2022-08-03T15:32:10.536Z,1.80
2022-08-03T15:35:19.413Z,1.63
2022-08-03T15:38:25.676Z,1.60
2022-08-03T15:41:28.749Z,1.73
2022-08-03T15:44:31.164Z,1.63
2022-08-03T15:47:33.523Z,1.70
2022-08-03T15:50:36.159Z,1.50
2022-08-03T15:53:41.369Z,1.70
2022-08-03T15:56:46.570Z,2.10
2022-08-03T15:59:48.957Z,1.70
2022-08-03T16:02:55.711Z,1.75
2022-08-03T16:05:59.287Z,1.80
2022-08-03T16:09:01.760Z,1.80
2022-08-03T16:12:04.500Z,1.95
2022-08-03T16:15:07.913Z,1.67
2022-08-03T16:18:10.289Z,1.80
2022-08-03T16:21:14.811Z,1.73
2022-08-03T16:24:27.727Z,1.85
2022-08-03T16:27:56.653Z,1.70
2022-08-03T16:30:52.987Z,1.70
2022-08-03T16:33:55.371Z,1.90
2022-08-03T16:36:57.934Z,2.00
2022-08-03T16:40:00.418Z,1.90
2022-08-03T16:43:18.608Z,1.85
2022-08-03T16:46:22.659Z,2.17
2022-08-03T16:49:54.940Z,1.80
2022-08-03T16:52:48.446Z,1.90
2022-08-03T16:55:54.372Z,1.90
2022-08-03T16:58:56.939Z,2.00
2022-08-03T17:02:04.357Z,1.92
2022-08-03T17:05:10.541Z,2.13
2022-08-03T17:08:13.039Z,2.10
2022-08-03T17:11:15.469Z,1.95
2022-08-03T17:14:22.771Z,2.15
2022-08-03T17:17:47.720Z,2.15
2022-08-03T17:20:58.272Z,2.00
2022-08-03T17:24:18.752Z,1.93
2022-08-03T17:28:51.104Z,1.98
2022-08-03T17:31:23.555Z,2.38
2022-08-03T17:34:34.684Z,2.15
2022-08-03T17:37:57.463Z,1.90
2022-08-03T17:41:01.411Z,2.60
2022-08-03T17:44:31.965Z,2.13
2022-08-03T17:47:42.529Z,2.08
2022-08-03T17:50:57.322Z,2.30
2022-08-03T17:54:18.131Z,2.38
2022-08-03T17:58:01.313Z,2.30
2022-08-03T18:02:00.651Z,2.30
2022-08-03T18:04:41.865Z,2.20
2022-08-03T18:07:59.252Z,2.60
2022-08-03T18:11:09.752Z,2.33
2022-08-03T18:14:27.433Z,2.60
2022-08-03T18:17:58.222Z,2.40
2022-08-03T18:20:57.281Z,2.83
2022-08-03T18:24:03.003Z,2.40
2022-08-03T18:27:06.516Z,2.65
2022-08-03T18:30:09.379Z,2.57
2022-08-03T18:34:17.626Z,2.60
2022-08-03T18:36:39.668Z,2.65
2022-08-03T18:39:50.029Z,2.58
2022-08-03T18:42:55.739Z,2.60
2022-08-03T18:46:03.379Z,2.70
2022-08-03T18:49:22.802Z,2.53
2022-08-03T18:52:28.142Z,2.83
2022-08-03T18:55:35.483Z,2.85
2022-08-03T18:58:51.438Z,2.38
2022-08-03T19:02:01.226Z,2.60
2022-08-03T19:05:09.456Z,2.75
2022-08-03T19:08:45.521Z,2.85
2022-08-03T19:12:14.016Z,3.08
2022-08-03T19:15:16.507Z,3.00
2022-08-03T19:18:24.068Z,2.60
2022-08-03T19:21:30.222Z,2.95
2022-08-03T19:24:35.686Z,3.10
2022-08-03T19:27:43.494Z,2.92
2022-08-03T19:30:53.589Z,3.00
2022-08-03T19:33:58.818Z,3.07
2022-08-03T19:37:02.466Z,2.83
2022-08-03T19:40:05.497Z,3.17
2022-08-03T19:43:53.533Z,3.10
2022-08-03T19:47:06.668Z,2.80
2022-08-03T19:50:13.745Z,3.20
2022-08-03T19:53:17.390Z,2.85
2022-08-03T19:56:24.213Z,3.13
2022-08-03T19:59:27.553Z,3.08
2022-08-03T20:02:29.996Z,3.00
2022-08-03T20:05:44.945Z,2.63
2022-08-03T20:08:55.412Z,2.90
2022-08-03T20:12:01.369Z,3.00
2022-08-03T20:15:04.898Z,2.80
2022-08-03T20:18:07.587Z,2.50
2022-08-03T20:21:23.257Z,2.93
2022-08-03T20:24:28.270Z,2.70
2022-08-03T20:28:07.939Z,2.85
2022-08-03T20:31:02.412Z,2.95
2022-08-03T20:34:06.959Z,2.90
2022-08-03T20:37:12.052Z,3.07
2022-08-03T20:40:14.602Z,3.00
2022-08-03T20:43:17.081Z,2.80
2022-08-03T20:46:31.015Z,3.15
2022-08-03T20:49:45.693Z,3.00
2022-08-03T20:52:49.856Z,2.77
2022-08-03T20:56:02.093Z,3.10
2022-08-03T20:59:07.208Z,2.80
2022-08-03T21:02:19.831Z,3.13
2022-08-03T21:05:51.491Z,2.85
2022-08-03T21:09:05.132Z,2.90
2022-08-03T21:12:15.445Z,3.05
2022-08-03T21:16:12.731Z,3.10
2022-08-03T21:18:51.870Z,2.88
2022-08-03T21:21:55.403Z,2.58
2022-08-03T21:24:58.501Z,2.87
2022-08-03T21:28:01.751Z,3.40
2022-08-03T21:31:04.554Z,2.80
2022-08-03T21:34:07.486Z,2.88
2022-08-03T21:37:11.924Z,2.90
2022-08-03T21:40:17.459Z,2.83
2022-08-03T21:43:19.857Z,2.80
2022-08-03T21:46:23.033Z,2.95
2022-08-03T21:50:07.205Z,2.95
2022-08-03T21:52:51.835Z,2.88
2022-08-03T21:56:03.472Z,2.80
2022-08-03T21:59:08.026Z,3.03
2022-08-03T22:02:22.797Z,2.95
2022-08-03T22:05:42.968Z,3.35
2022-08-03T22:08:49.549Z,3.08
2022-08-03T22:11:54.295Z,2.83
2022-08-03T22:15:00.256Z,3.13
2022-08-03T22:18:04.365Z,3.58
2022-08-03T22:21:09.143Z,2.83
2022-08-03T22:24:11.745Z,3.20
2022-08-03T22:27:32.221Z,3.30
2022-08-03T22:30:35.007Z,3.10
2022-08-03T22:33:38.431Z,2.95
2022-08-03T22:36:40.970Z,3.40
2022-08-03T22:39:44.610Z,3.30
2022-08-03T22:42:50.501Z,3.33
2022-08-03T22:46:10.628Z,3.13
2022-08-03T22:49:16.682Z,2.95
2022-08-03T22:52:20.402Z,3.30
2022-08-03T22:55:25.183Z,2.90
2022-08-03T22:58:27.731Z,3.30
2022-08-03T23:01:36.103Z,3.03
2022-08-03T23:04:41.207Z,3.38
2022-08-03T23:07:45.728Z,3.55
2022-08-03T23:10:48.777Z,3.05
2022-08-03T23:13:54.177Z,3.27
2022-08-03T23:16:58.866Z,3.42
2022-08-03T23:20:08.987Z,3.20
2022-08-03T23:23:11.482Z,3.50
2022-08-03T23:26:17.287Z,3.42
2022-08-03T23:29:20.478Z,3.50
2022-08-03T23:32:25.912Z,3.38
2022-08-03T23:36:29.421Z,3.40
2022-08-03T23:39:09.706Z,3.40
2022-08-03T23:42:13.842Z,3.50
2022-08-03T23:45:19.757Z,3.43
2022-08-03T23:48:22.304Z,3.50
2022-08-03T23:51:33.513Z,3.45
2022-08-03T23:55:06.997Z,3.60
2022-08-03T23:58:21.039Z,3.80
